Time;durP1;ratioP1;P1;durP2;ratioP2;P2;SDS_P1;SDS_P2;PMS_P1;PMS_P2;Temp;Humidity;BMP_temperature;BMP_pressure;BME280_temperature;BME280_humidity;BME280_pressure;Samples;Min_cycle;Max_cycle;Signal;HPM_P1;HPM_P2
2022/10/27 00:00:12;;;;;;;1.77;1.40;;;;;;;;;;5008730;28;20347;-54
2022/10/27 00:02:37;;;;;;;1.70;1.30;;;;;;;;;;5004660;28;20188;-53
2022/10/27 00:05:03;;;;;;;1.77;1.33;;;;;;;;;;5002732;28;20259;-53
2022/10/27 00:07:28;;;;;;;2.13;1.60;;;;;;;;;;5002018;28;20188;-54
2022/10/27 00:09:53;;;;;;;1.87;1.40;;;;;;;;;;5003331;28;20192;-54
2022/10/27 00:12:19;;;;;;;1.60;1.13;;;;;;;;;;5003598;28;20176;-52
2022/10/27 00:14:44;;;;;;;2.30;1.40;;;;;;;;;;5002727;28;20204;-51
2022/10/27 00:17:09;;;;;;;2.87;1.30;;;;;;;;;;5002431;28;20567;-54
2022/10/27 00:19:34;;;;;;;2.13;1.43;;;;;;;;;;4995005;28;20319;-52
2022/10/27 00:22:00;;;;;;;2.90;1.47;;;;;;;;;;5002178;28;20180;-53
2022/10/27 00:24:25;;;;;;;2.37;1.60;;;;;;;;;;5001112;28;20552;-54
2022/10/27 00:26:50;;;;;;;2.10;1.30;;;;;;;;;;5001301;28;20219;-50
2022/10/27 00:29:15;;;;;;;1.70;1.37;;;;;;;;;;5005784;28;20196;-55
2022/10/27 00:31:41;;;;;;;3.00;1.57;;;;;;;;;;5003425;28;20184;-52
2022/10/27 00:34:06;;;;;;;1.87;1.57;;;;;;;;;;5008016;28;20548;-54
2022/10/27 00:36:31;;;;;;;1.50;1.20;;;;;;;;;;5001594;28;20185;-51
2022/10/27 00:38:58;;;;;;;2.40;1.60;;;;;;;;;;5005469;28;20299;-53
2022/10/27 00:41:31;;;;;;;1.70;1.37;;;;;;;;;;5002797;28;20259;-53
2022/10/27 00:43:58;;;;;;;1.63;1.20;;;;;;;;;;5007148;28;20291;-54
2022/10/27 00:46:39;;;;;;;2.13;1.50;;;;;;;;;;4998882;28;20191;-54
2022/10/27 00:49:16;;;;;;;2.27;1.43;;;;;;;;;;5004729;28;20199;-54
2022/10/27 00:51:45;;;;;;;2.03;1.37;;;;;;;;;;4999223;28;20264;-52
2022/10/27 00:54:11;;;;;;;1.90;1.40;;;;;;;;;;5006676;28;20192;-55
2022/10/27 00:56:37;;;;;;;2.20;1.73;;;;;;;;;;5006073;28;20202;-52
2022/10/27 00:59:02;;;;;;;1.43;1.30;;;;;;;;;;4999354;28;20176;-54
2022/10/27 01:01:28;;;;;;;1.80;1.50;;;;;;;;;;5001804;28;20723;-55
2022/10/27 01:03:54;;;;;;;1.47;1.33;;;;;;;;;;5004755;28;20294;-55
2022/10/27 01:06:19;;;;;;;1.27;1.17;;;;;;;;;;5002058;28;20188;-54
2022/10/27 01:08:45;;;;;;;2.00;1.43;;;;;;;;;;5005986;28;20219;-49
2022/10/27 01:11:10;;;;;;;1.50;1.33;;;;;;;;;;4996881;28;20267;-55
2022/10/27 01:13:36;;;;;;;1.77;1.30;;;;;;;;;;4998936;28;20210;-50
2022/10/27 01:16:16;;;;;;;1.77;1.40;;;;;;;;;;4994141;28;20226;-53
2022/10/27 01:18:58;;;;;;;1.83;1.10;;;;;;;;;;4999824;28;20290;-49
2022/10/27 01:21:29;;;;;;;1.80;1.40;;;;;;;;;;4997332;28;20177;-54
2022/10/27 01:24:28;;;;;;;2.13;1.53;;;;;;;;;;5002549;28;20894;-52
2022/10/27 01:26:58;;;;;;;1.53;1.30;;;;;;;;;;4993203;28;20227;-56
2022/10/27 01:29:34;;;;;;;1.60;1.37;;;;;;;;;;4993956;28;20238;-50
2022/10/27 01:32:32;;;;;;;2.00;1.30;;;;;;;;;;4993688;28;20703;-52
2022/10/27 01:35:19;;;;;;;1.57;1.30;;;;;;;;;;4993223;28;20197;-51
2022/10/27 01:37:55;;;;;;;1.50;1.30;;;;;;;;;;4991380;28;20204;-49
2022/10/27 01:40:46;;;;;;;1.90;1.10;;;;;;;;;;4994946;28;20175;-50
2022/10/27 01:43:18;;;;;;;1.60;1.30;;;;;;;;;;4992703;28;20208;-54
2022/10/27 01:45:44;;;;;;;1.40;1.20;;;;;;;;;;4991471;28;20196;-54
2022/10/27 01:48:10;;;;;;;1.87;1.30;;;;;;;;;;4990042;28;20187;-51
2022/10/27 01:50:38;;;;;;;1.73;1.50;;;;;;;;;;5000429;28;20187;-50
2022/10/27 01:53:04;;;;;;;1.73;1.33;;;;;;;;;;4993795;28;20207;-51
2022/10/27 01:55:36;;;;;;;2.47;1.30;;;;;;;;;;4998278;28;20188;-51
2022/10/27 01:58:20;;;;;;;1.97;1.40;;;;;;;;;;5000771;28;20342;-52
2022/10/27 02:01:04;;;;;;;1.50;1.33;;;;;;;;;;4994451;28;20308;-49
2022/10/27 02:03:50;;;;;;;1.30;1.20;;;;;;;;;;4996355;28;20200;-49
2022/10/27 02:06:21;;;;;;;1.70;1.17;;;;;;;;;;4995955;28;20207;-52
2022/10/27 02:08:52;;;;;;;1.73;1.53;;;;;;;;;;4989864;28;20277;-52
2022/10/27 02:11:17;;;;;;;1.97;1.40;;;;;;;;;;4995606;28;20718;-53
2022/10/27 02:13:44;;;;;;;1.23;1.10;;;;;;;;;;4991269;28;20205;-49
2022/10/27 02:16:26;;;;;;;1.70;1.37;;;;;;;;;;4992303;28;20176;-52
2022/10/27 02:18:56;;;;;;;1.60;1.30;;;;;;;;;;4989996;28;20185;-55
2022/10/27 02:21:21;;;;;;;2.03;1.30;;;;;;;;;;4999001;28;20190;-50
2022/10/27 02:23:47;;;;;;;2.03;1.40;;;;;;;;;;5002388;28;20290;-53
2022/10/27 02:26:24;;;;;;;1.43;1.30;;;;;;;;;;4997058;28;20172;-54
2022/10/27 02:28:58;;;;;;;1.73;1.47;;;;;;;;;;4991117;28;20645;-50
2022/10/27 02:31:29;;;;;;;1.30;1.20;;;;;;;;;;4990387;28;20216;-54
2022/10/27 02:33:56;;;;;;;1.43;1.30;;;;;;;;;;5016362;28;20208;-55
2022/10/27 02:36:21;;;;;;;1.20;1.10;;;;;;;;;;4997891;28;20189;-54
2022/10/27 02:38:47;;;;;;;1.87;1.40;;;;;;;;;;4988660;28;20227;-54
2022/10/27 02:41:12;;;;;;;2.33;1.43;;;;;;;;;;5018005;28;20263;-51
2022/10/27 02:43:37;;;;;;;1.70;1.30;;;;;;;;;;4990514;28;20262;-54
2022/10/27 02:46:02;;;;;;;1.87;1.30;;;;;;;;;;4995786;28;20674;-51
2022/10/27 02:48:28;;;;;;;2.10;1.20;;;;;;;;;;4991119;28;20192;-53
2022/10/27 02:50:53;;;;;;;1.70;1.40;;;;;;;;;;4992546;28;20180;-53
2022/10/27 02:53:18;;;;;;;1.80;1.33;;;;;;;;;;4998006;28;20284;-51
2022/10/27 02:55:43;;;;;;;2.77;1.27;;;;;;;;;;4993904;28;20189;-53
2022/10/27 02:58:09;;;;;;;1.27;1.10;;;;;;;;;;5002488;28;20660;-51
2022/10/27 03:00:34;;;;;;;1.50;1.27;;;;;;;;;;4997820;28;20180;-55
2022/10/27 03:03:01;;;;;;;1.87;1.20;;;;;;;;;;4992753;28;20274;-53
2022/10/27 03:05:26;;;;;;;2.00;1.20;;;;;;;;;;4997464;28;20204;-53
2022/10/27 03:07:52;;;;;;;1.67;1.37;;;;;;;;;;4996661;28;20278;-54
2022/10/27 03:10:17;;;;;;;1.47;1.30;;;;;;;;;;4990034;28;20189;-54
2022/10/27 03:12:45;;;;;;;1.40;1.30;;;;;;;;;;4993791;28;20235;-54
2022/10/27 03:15:10;;;;;;;1.33;1.23;;;;;;;;;;4989132;28;20564;-54
2022/10/27 03:17:35;;;;;;;1.20;1.00;;;;;;;;;;4994315;28;20692;-54
2022/10/27 03:20:00;;;;;;;1.57;1.27;;;;;;;;;;4991000;28;20187;-55
2022/10/27 03:22:26;;;;;;;1.67;1.20;;;;;;;;;;5002232;28;20528;-52
2022/10/27 03:24:51;;;;;;;1.30;1.10;;;;;;;;;;4993990;28;20197;-53
2022/10/27 03:27:16;;;;;;;1.90;1.47;;;;;;;;;;5000515;28;20184;-54
2022/10/27 03:29:41;;;;;;;1.70;1.30;;;;;;;;;;4995089;28;20187;-54
2022/10/27 03:32:07;;;;;;;1.83;1.30;;;;;;;;;;5001290;28;20734;-55
2022/10/27 03:34:32;;;;;;;2.00;1.50;;;;;;;;;;5001263;28;20204;-53
2022/10/27 03:36:57;;;;;;;1.40;1.10;;;;;;;;;;4997843;28;20211;-54
2022/10/27 03:39:23;;;;;;;1.30;1.10;;;;;;;;;;4995801;28;20224;-52
2022/10/27 03:41:48;;;;;;;1.23;1.10;;;;;;;;;;4993685;28;20184;-53
2022/10/27 03:44:13;;;;;;;1.27;1.10;;;;;;;;;;4998776;28;20214;-54
2022/10/27 03:46:38;;;;;;;1.20;1.10;;;;;;;;;;4998399;28;20213;-55
2022/10/27 03:49:04;;;;;;;1.40;1.10;;;;;;;;;;5020990;28;20181;-54
2022/10/27 03:51:29;;;;;;;1.20;1.10;;;;;;;;;;4998472;28;20212;-55
2022/10/27 03:53:55;;;;;;;1.23;1.13;;;;;;;;;;4996663;28;20847;-51
2022/10/27 03:56:21;;;;;;;1.37;1.20;;;;;;;;;;4994405;28;20616;-53
2022/10/27 03:58:46;;;;;;;1.40;1.20;;;;;;;;;;5003779;28;20223;-53
2022/10/27 04:01:11;;;;;;;1.20;0.93;;;;;;;;;;4999146;28;20180;-55
2022/10/27 04:03:37;;;;;;;1.53;1.13;;;;;;;;;;4994818;28;20720;-52
2022/10/27 04:06:02;;;;;;;1.20;1.10;;;;;;;;;;5000199;28;20216;-54
2022/10/27 04:08:27;;;;;;;2.40;1.20;;;;;;;;;;4993396;28;20231;-51
2022/10/27 04:10:53;;;;;;;1.40;1.20;;;;;;;;;;4998679;28;20572;-54
2022/10/27 04:13:18;;;;;;;1.40;1.30;;;;;;;;;;4996882;28;20211;-53
2022/10/27 04:15:43;;;;;;;1.20;1.10;;;;;;;;;;4995399;28;20181;-53
2022/10/27 04:18:09;;;;;;;1.10;1.00;;;;;;;;;;4995770;28;20600;-55
2022/10/27 04:20:34;;;;;;;1.33;1.10;;;;;;;;;;4999070;28;20573;-54
2022/10/27 04:22:59;;;;;;;1.60;1.10;;;;;;;;;;4994336;28;20279;-51
2022/10/27 04:25:26;;;;;;;1.40;1.10;;;;;;;;;;4996875;28;20609;-53
2022/10/27 04:27:59;;;;;;;1.70;1.10;;;;;;;;;;4995003;28;20192;-54
2022/10/27 04:30:25;;;;;;;1.53;1.17;;;;;;;;;;4991719;28;20276;-55
2022/10/27 04:32:53;;;;;;;1.60;1.20;;;;;;;;;;4993867;28;20241;-53
2022/10/27 04:35:18;;;;;;;1.60;1.20;;;;;;;;;;4991548;28;20645;-51
2022/10/27 04:37:43;;;;;;;1.43;1.07;;;;;;;;;;4996933;28;20204;-53
2022/10/27 04:40:09;;;;;;;1.37;1.10;;;;;;;;;;4999043;28;20191;-55
2022/10/27 04:42:34;;;;;;;1.37;1.20;;;;;;;;;;4997754;28;21125;-54
2022/10/27 04:45:00;;;;;;;1.30;0.90;;;;;;;;;;4992019;28;20233;-55
2022/10/27 04:47:25;;;;;;;1.33;1.03;;;;;;;;;;4998946;28;20276;-55
2022/10/27 04:49:50;;;;;;;1.20;1.10;;;;;;;;;;4992734;28;20526;-51
2022/10/27 04:52:15;;;;;;;1.23;1.10;;;;;;;;;;4997055;28;20184;-50
2022/10/27 04:54:41;;;;;;;1.10;1.00;;;;;;;;;;4997215;28;20195;-54
2022/10/27 04:57:07;;;;;;;1.20;1.10;;;;;;;;;;4999606;28;20458;-54
2022/10/27 04:59:32;;;;;;;1.87;1.10;;;;;;;;;;4997611;28;20223;-49
2022/10/27 05:01:57;;;;;;;1.53;1.10;;;;;;;;;;5002202;28;20551;-55
2022/10/27 05:04:22;;;;;;;1.40;1.17;;;;;;;;;;5001911;28;20208;-50
2022/10/27 05:06:48;;;;;;;1.33;1.03;;;;;;;;;;4996165;28;20290;-55
2022/10/27 05:09:13;;;;;;;1.20;1.10;;;;;;;;;;4992297;28;20184;-54
2022/10/27 05:11:38;;;;;;;2.00;1.00;;;;;;;;;;4992512;28;20180;-51
2022/10/27 05:14:04;;;;;;;1.20;1.10;;;;;;;;;;4999980;28;20663;-55
2022/10/27 05:16:29;;;;;;;1.50;1.00;;;;;;;;;;4998709;28;20202;-50
2022/10/27 05:18:54;;;;;;;1.20;1.03;;;;;;;;;;4996189;28;20212;-54
2022/10/27 05:21:19;;;;;;;1.50;1.10;;;;;;;;;;4998728;28;20180;-53
2022/10/27 05:23:45;;;;;;;1.40;1.07;;;;;;;;;;4992172;28;20565;-62
2022/10/27 05:26:10;;;;;;;1.50;1.30;;;;;;;;;;4994073;28;20576;-57
2022/10/27 05:28:36;;;;;;;4.07;2.13;;;;;;;;;;4992988;28;20177;-58
2022/10/27 05:31:02;;;;;;;3.27;2.20;;;;;;;;;;4998450;28;20254;-58
2022/10/27 05:33:27;;;;;;;7.20;2.60;;;;;;;;;;4994869;28;20577;-59
2022/10/27 05:35:53;;;;;;;9.90;2.50;;;;;;;;;;4990592;28;20643;-59
2022/10/27 05:38:18;;;;;;;6.93;2.30;;;;;;;;;;4995757;28;20268;-58
2022/10/27 05:40:44;;;;;;;3.43;2.10;;;;;;;;;;4995519;28;20180;-59
2022/10/27 05:43:09;;;;;;;6.50;2.40;;;;;;;;;;4954811;28;20238;-60
2022/10/27 05:45:35;;;;;;;4.33;2.17;;;;;;;;;;4999129;28;20554;-60
2022/10/27 05:48:02;;;;;;;7.60;2.40;;;;;;;;;;4996568;28;20328;-58
2022/10/27 05:50:28;;;;;;;5.10;2.27;;;;;;;;;;4994382;28;20185;-58
2022/10/27 05:52:54;;;;;;;7.20;2.10;;;;;;;;;;4994412;28;20196;-55
2022/10/27 05:55:19;;;;;;;4.67;2.10;;;;;;;;;;4991327;28;20176;-57
2022/10/27 05:57:59;;;;;;;3.97;1.90;;;;;;;;;;4992065;28;20223;-57
2022/10/27 06:00:29;;;;;;;3.90;1.87;;;;;;;;;;4993634;28;20180;-58
2022/10/27 06:02:57;;;;;;;5.93;1.93;;;;;;;;;;4992878;28;20212;-58
2022/10/27 06:05:24;;;;;;;4.37;2.30;;;;;;;;;;4999929;28;20764;-57
2022/10/27 06:07:49;;;;;;;2.60;1.80;;;;;;;;;;4992560;28;20187;-58
2022/10/27 06:10:15;;;;;;;4.27;2.10;;;;;;;;;;4991017;28;20177;-56
2022/10/27 06:12:40;;;;;;;3.90;2.20;;;;;;;;;;4992863;28;20191;-56
2022/10/27 06:15:06;;;;;;;6.70;2.60;;;;;;;;;;4992994;28;20177;-57
2022/10/27 06:17:31;;;;;;;3.17;2.47;;;;;;;;;;4993150;28;20203;-57
2022/10/27 06:19:56;;;;;;;4.20;2.00;;;;;;;;;;4992273;28;20181;-57
2022/10/27 06:22:21;;;;;;;3.40;1.63;;;;;;;;;;4994400;28;20192;-57
2022/10/27 06:24:47;;;;;;;5.70;2.10;;;;;;;;;;4996753;28;20204;-57
2022/10/27 06:27:12;;;;;;;2.80;1.70;;;;;;;;;;4994932;28;20639;-57
2022/10/27 06:29:37;;;;;;;3.90;1.90;;;;;;;;;;4996809;28;20181;-57
2022/10/27 06:32:03;;;;;;;3.47;1.60;;;;;;;;;;4992427;28;20184;-57
2022/10/27 06:34:28;;;;;;;2.50;1.70;;;;;;;;;;4993726;28;20696;-55
2022/10/27 06:36:53;;;;;;;3.35;2.05;;;;;;;;;;4994278;28;20261;-57
2022/10/27 06:39:18;;;;;;;4.13;1.50;;;;;;;;;;4991319;28;20184;-57
2022/10/27 06:41:44;;;;;;;5.13;1.90;;;;;;;;;;4989071;28;20191;-58
2022/10/27 06:44:09;;;;;;;3.13;1.85;;;;;;;;;;4993471;28;20255;-56
2022/10/27 06:46:35;;;;;;;5.25;1.88;;;;;;;;;;4991599;28;20184;-60
2022/10/27 06:49:00;;;;;;;4.63;1.77;;;;;;;;;;4994613;28;20592;-58
2022/10/27 06:51:26;;;;;;;5.50;1.77;;;;;;;;;;5005397;28;20218;-58
2022/10/27 06:53:51;;;;;;;1.70;1.50;;;;;;;;;;4995483;28;20691;-59
2022/10/27 06:56:18;;;;;;;5.43;2.47;;;;;;;;;;4999544;28;20281;-55
2022/10/27 06:58:45;;;;;;;3.57;1.50;;;;;;;;;;5004154;28;20200;-54
2022/10/27 07:01:10;;;;;;;2.47;1.67;;;;;;;;;;4993159;28;20212;-56
2022/10/27 07:03:36;;;;;;;3.80;1.77;;;;;;;;;;5002029;28;20254;-55
2022/10/27 07:06:02;;;;;;;3.33;1.67;;;;;;;;;;4999377;28;20177;-55
2022/10/27 07:08:27;;;;;;;5.45;2.00;;;;;;;;;;5002491;28;20668;-55
2022/10/27 07:10:53;;;;;;;2.53;1.55;;;;;;;;;;4997724;28;21342;-55
2022/10/27 07:13:18;;;;;;;4.43;2.00;;;;;;;;;;4998288;28;20208;-55
2022/10/27 07:15:44;;;;;;;3.20;1.45;;;;;;;;;;5002055;28;20598;-55
2022/10/27 07:18:09;;;;;;;4.23;1.63;;;;;;;;;;4955822;28;20227;-54
2022/10/27 07:20:37;;;;;;;2.17;1.50;;;;;;;;;;5001632;28;20176;-55
2022/10/27 07:23:03;;;;;;;2.13;1.52;;;;;;;;;;5005738;28;21762;-53
2022/10/27 07:25:29;;;;;;;4.68;1.80;;;;;;;;;;5002750;28;20184;-59
2022/10/27 07:27:54;;;;;;;2.55;1.58;;;;;;;;;;4998195;28;20619;-55
2022/10/27 07:30:26;;;;;;;3.80;1.70;;;;;;;;;;5001844;28;20866;-56
2022/10/27 07:32:51;;;;;;;3.10;1.80;;;;;;;;;;5004731;28;20204;-56
2022/10/27 07:35:16;;;;;;;2.70;1.88;;;;;;;;;;4998580;28;20644;-55
2022/10/27 07:37:45;;;;;;;2.72;1.60;;;;;;;;;;4998101;28;20197;-57
2022/10/27 07:40:12;;;;;;;1.90;1.48;;;;;;;;;;5007828;28;20660;-57
2022/10/27 07:42:45;;;;;;;3.08;2.08;;;;;;;;;;4999070;28;20179;-57
2022/10/27 07:45:11;;;;;;;4.20;1.70;;;;;;;;;;5003212;28;20204;-57
2022/10/27 07:47:37;;;;;;;2.63;1.85;;;;;;;;;;4977351;28;20580;-55
2022/10/27 07:50:02;;;;;;;3.25;1.70;;;;;;;;;;5022113;28;20172;-56
2022/10/27 07:52:27;;;;;;;3.08;1.92;;;;;;;;;;5017843;28;20192;-56
2022/10/27 07:54:53;;;;;;;1.80;1.55;;;;;;;;;;5021027;28;20187;-59
2022/10/27 07:57:18;;;;;;;1.90;1.50;;;;;;;;;;5021576;28;20579;-55
2022/10/27 07:59:43;;;;;;;3.22;1.60;;;;;;;;;;5026293;28;20196;-56
2022/10/27 08:02:11;;;;;;;2.88;1.65;;;;;;;;;;5017078;28;20180;-53
2022/10/27 08:04:37;;;;;;;4.93;1.88;;;;;;;;;;5017064;28;20694;-59
2022/10/27 08:07:02;;;;;;;6.25;1.90;;;;;;;;;;5023679;28;20180;-58
2022/10/27 08:09:27;;;;;;;4.30;1.90;;;;;;;;;;5018011;28;20184;-57
2022/10/27 08:11:52;;;;;;;3.38;1.60;;;;;;;;;;5017448;28;21091;-57
2022/10/27 08:14:18;;;;;;;4.60;1.60;;;;;;;;;;5017880;28;20211;-58
2022/10/27 08:16:43;;;;;;;3.13;1.88;;;;;;;;;;5019932;28;20175;-58
2022/10/27 08:19:09;;;;;;;2.50;1.73;;;;;;;;;;5019448;28;20191;-58
2022/10/27 08:21:34;;;;;;;2.63;1.65;;;;;;;;;;5016833;28;20206;-61
2022/10/27 08:23:59;;;;;;;5.00;1.98;;;;;;;;;;5019004;28;20267;-60
2022/10/27 08:26:24;;;;;;;2.75;1.77;;;;;;;;;;5017721;28;20248;-59
2022/10/27 08:28:50;;;;;;;2.47;1.73;;;;;;;;;;5016427;28;20298;-55
2022/10/27 08:31:15;;;;;;;2.67;1.90;;;;;;;;;;5026333;28;20632;-60
2022/10/27 08:33:40;;;;;;;3.00;1.80;;;;;;;;;;5022453;28;20543;-55
2022/10/27 08:36:05;;;;;;;2.30;1.67;;;;;;;;;;5014839;28;20548;-54
2022/10/27 08:38:32;;;;;;;3.10;1.50;;;;;;;;;;5024319;28;20211;-57
2022/10/27 08:41:22;;;;;;;3.10;1.60;;;;;;;;;;5019833;28;21890;-55
2022/10/27 08:44:02;;;;;;;2.42;1.73;;;;;;;;;;5011444;28;20570;-54
2022/10/27 08:46:42;;;;;;;2.95;1.77;;;;;;;;;;5023538;28;20218;-51
2022/10/27 08:49:31;;;;;;;3.88;1.83;;;;;;;;;;5014689;28;20610;-55
2022/10/27 08:52:06;;;;;;;2.47;1.52;;;;;;;;;;5020812;28;20167;-55
2022/10/27 08:54:31;;;;;;;2.47;1.63;;;;;;;;;;5015798;28;20724;-55
2022/10/27 08:56:57;;;;;;;4.20;1.80;;;;;;;;;;5014342;28;20184;-52
2022/10/27 08:59:24;;;;;;;2.17;1.70;;;;;;;;;;5014715;28;20295;-54
2022/10/27 09:02:12;;;;;;;2.58;1.58;;;;;;;;;;5021915;28;20238;-55
2022/10/27 09:05:04;;;;;;;1.80;1.40;;;;;;;;;;5013505;28;20210;-55
2022/10/27 09:07:37;;;;;;;2.22;1.50;;;;;;;;;;5020124;28;20187;-57
2022/10/27 09:10:06;;;;;;;2.33;1.70;;;;;;;;;;5024777;28;20665;-57
2022/10/27 09:12:56;;;;;;;3.08;1.50;;;;;;;;;;5023888;28;20670;-54
2022/10/27 09:15:40;;;;;;;2.25;2.03;;;;;;;;;;5015565;28;20665;-55
2022/10/27 09:18:11;;;;;;;3.20;1.65;;;;;;;;;;5021302;28;20236;-56
2022/10/27 09:20:43;;;;;;;3.55;1.70;;;;;;;;;;5021123;28;20187;-56
2022/10/27 09:23:15;;;;;;;2.80;1.58;;;;;;;;;;5013035;28;20237;-57
2022/10/27 09:25:40;;;;;;;1.60;1.30;;;;;;;;;;5013049;28;20301;-52
2022/10/27 09:28:11;;;;;;;1.98;1.70;;;;;;;;;;5025411;28;20247;-61
2022/10/27 09:30:38;;;;;;;2.00;1.55;;;;;;;;;;5012835;28;20291;-57
2022/10/27 09:33:16;;;;;;;2.22;1.70;;;;;;;;;;4996751;28;20196;-56
2022/10/27 09:35:42;;;;;;;2.25;1.58;;;;;;;;;;5017276;28;20287;-55
2022/10/27 09:38:11;;;;;;;3.05;1.48;;;;;;;;;;5017677;28;20740;-59
2022/10/27 09:40:36;;;;;;;2.22;1.70;;;;;;;;;;5015737;28;20176;-54
2022/10/27 09:43:02;;;;;;;4.38;1.98;;;;;;;;;;5016327;28;20202;-58
2022/10/27 09:45:27;;;;;;;2.95;2.30;;;;;;;;;;5011617;28;20180;-60
2022/10/27 09:47:56;;;;;;;2.67;1.80;;;;;;;;;;5012449;28;20171;-58
2022/10/27 09:50:45;;;;;;;3.67;1.98;;;;;;;;;;5012362;28;20206;-61
2022/10/27 09:53:46;;;;;;;4.38;2.10;;;;;;;;;;5017534;28;20207;-59
2022/10/27 09:56:18;;;;;;;3.63;2.30;;;;;;;;;;5020767;28;20294;-53
2022/10/27 09:59:00;;;;;;;4.32;2.13;;;;;;;;;;5013316;28;20199;-54
2022/10/27 10:01:27;;;;;;;3.15;2.33;;;;;;;;;;5015214;28;20183;-57
2022/10/27 10:03:54;;;;;;;2.83;1.98;;;;;;;;;;5011799;28;20204;-57
2022/10/27 10:06:28;;;;;;;3.60;2.30;;;;;;;;;;4995951;28;20269;-53
2022/10/27 10:08:54;;;;;;;2.80;2.00;;;;;;;;;;5017663;28;20179;-55
2022/10/27 10:11:21;;;;;;;4.30;2.40;;;;;;;;;;5018954;28;20168;-55
2022/10/27 10:13:59;;;;;;;3.35;2.13;;;;;;;;;;5011048;28;20274;-55
2022/10/27 10:16:29;;;;;;;5.18;2.30;;;;;;;;;;5010808;28;20188;-55
2022/10/27 10:19:05;;;;;;;3.10;2.10;;;;;;;;;;5012301;28;20206;-57
2022/10/27 10:21:50;;;;;;;6.00;2.92;;;;;;;;;;5021390;28;20183;-56
2022/10/27 10:24:32;;;;;;;6.30;3.55;;;;;;;;;;5024149;28;20237;-58
2022/10/27 10:26:59;;;;;;;9.45;4.50;;;;;;;;;;5007840;28;20215;-58
2022/10/27 10:29:31;;;;;;;5.75;3.40;;;;;;;;;;5018705;28;20226;-58
2022/10/27 10:32:08;;;;;;;5.10;2.40;;;;;;;;;;5021256;28;20179;-56
2022/10/27 10:34:34;;;;;;;3.17;2.40;;;;;;;;;;5027200;28;20194;-55
2022/10/27 10:37:00;;;;;;;5.15;2.53;;;;;;;;;;5019113;28;20544;-56
2022/10/27 10:39:32;;;;;;;4.07;2.20;;;;;;;;;;5018940;28;20199;-54
2022/10/27 10:42:14;;;;;;;4.68;2.20;;;;;;;;;;5034055;28;20215;-55
2022/10/27 10:44:40;;;;;;;4.35;2.22;;;;;;;;;;5029623;28;20207;-56
2022/10/27 10:47:11;;;;;;;3.83;2.25;;;;;;;;;;5030170;28;20616;-55
2022/10/27 10:49:41;;;;;;;3.10;2.22;;;;;;;;;;5022380;28;20545;-56
2022/10/27 10:52:16;;;;;;;3.72;2.28;;;;;;;;;;5026047;28;20662;-55
2022/10/27 10:54:43;;;;;;;3.95;2.05;;;;;;;;;;5021926;28;20218;-55
2022/10/27 10:57:32;;;;;;;4.45;2.40;;;;;;;;;;5023985;28;20207;-54
2022/10/27 10:59:58;;;;;;;3.72;2.20;;;;;;;;;;5016063;28;20180;-55
2022/10/27 11:02:31;;;;;;;3.13;2.33;;;;;;;;;;5020109;28;20184;-56
2022/10/27 11:04:58;;;;;;;4.32;2.40;;;;;;;;;;5024598;28;20424;-56
2022/10/27 11:07:24;;;;;;;3.90;2.50;;;;;;;;;;5015330;28;20178;-55
2022/10/27 11:10:12;;;;;;;3.58;2.40;;;;;;;;;;5013371;28;20208;-55
2022/10/27 11:13:00;;;;;;;3.80;2.25;;;;;;;;;;5011466;28;20552;-49
2022/10/27 11:15:28;;;;;;;4.50;2.30;;;;;;;;;;5015000;28;20180;-52
2022/10/27 11:18:09;;;;;;;2.80;2.10;;;;;;;;;;5015402;28;20676;-51
2022/10/27 11:20:36;;;;;;;5.63;2.72;;;;;;;;;;5016109;28;20275;-50
2022/10/27 11:23:05;;;;;;;3.40;2.20;;;;;;;;;;5001067;28;20580;-53
2022/10/27 11:25:33;;;;;;;3.15;2.20;;;;;;;;;;5018358;28;20179;-48
2022/10/27 11:28:18;;;;;;;3.80;2.45;;;;;;;;;;5016928;28;20180;-53
2022/10/27 11:30:54;;;;;;;3.95;2.20;;;;;;;;;;5018496;28;20225;-57
2022/10/27 11:33:29;;;;;;;4.85;2.05;;;;;;;;;;5011267;28;20203;-58
2022/10/27 11:36:04;;;;;;;3.53;2.20;;;;;;;;;;5027432;28;20179;-58
2022/10/27 11:38:39;;;;;;;3.40;1.80;;;;;;;;;;5015118;28;20293;-57
2022/10/27 11:41:31;;;;;;;2.72;2.05;;;;;;;;;;5011614;28;20187;-58
2022/10/27 11:44:36;;;;;;;3.20;2.20;;;;;;;;;;5021002;28;20199;-61
2022/10/27 11:47:14;;;;;;;2.72;1.83;;;;;;;;;;5019538;28;20183;-61
2022/10/27 11:50:02;;;;;;;3.75;2.20;;;;;;;;;;5017047;28;20255;-63
2022/10/27 11:52:36;;;;;;;5.43;2.33;;;;;;;;;;5015208;28;20191;-58
2022/10/27 11:55:02;;;;;;;5.95;3.28;;;;;;;;;;5023510;28;20182;-58
2022/10/27 11:57:48;;;;;;;3.63;2.03;;;;;;;;;;5014847;28;20280;-59
2022/10/27 12:00:26;;;;;;;2.75;2.10;;;;;;;;;;5016099;28;20183;-58
2022/10/27 12:03:03;;;;;;;3.42;2.20;;;;;;;;;;5014310;28;20707;-56
2022/10/27 12:05:36;;;;;;;5.70;2.42;;;;;;;;;;5017433;28;20586;-55
2022/10/27 12:08:32;;;;;;;3.10;2.20;;;;;;;;;;5021764;28;20255;-57
2022/10/27 12:11:16;;;;;;;3.03;2.10;;;;;;;;;;5014136;28;20180;-58
2022/10/27 12:14:03;;;;;;;3.20;2.45;;;;;;;;;;5018209;28;20673;-58
2022/10/27 12:16:37;;;;;;;3.30;2.20;;;;;;;;;;5013239;28;20190;-58
2022/10/27 12:19:07;;;;;;;2.97;2.22;;;;;;;;;;5012931;28;20254;-60
2022/10/27 12:21:45;;;;;;;5.70;2.47;;;;;;;;;;5013618;28;20599;-56
2022/10/27 12:24:29;;;;;;;2.60;1.90;;;;;;;;;;5017319;28;20227;-54
2022/10/27 12:27:01;;;;;;;3.13;2.20;;;;;;;;;;5015148;28;20349;-55
2022/10/27 12:29:35;;;;;;;2.95;2.20;;;;;;;;;;5023113;28;20498;-58
2022/10/27 12:32:11;;;;;;;3.10;2.17;;;;;;;;;;5010619;28;20659;-57
2022/10/27 12:34:45;;;;;;;2.58;2.03;;;;;;;;;;5025090;28;20467;-57
2022/10/27 12:37:13;;;;;;;2.95;2.15;;;;;;;;;;5017768;28;20203;-57
2022/10/27 12:39:54;;;;;;;4.13;1.95;;;;;;;;;;5026437;28;20194;-57
2022/10/27 12:42:31;;;;;;;3.08;2.10;;;;;;;;;;5023329;28;20180;-57
2022/10/27 12:45:26;;;;;;;4.38;2.65;;;;;;;;;;5009352;28;20222;-57
2022/10/27 12:47:54;;;;;;;3.53;2.10;;;;;;;;;;5042155;28;20199;-56
2022/10/27 12:50:25;;;;;;;4.10;2.40;;;;;;;;;;5018780;28;20204;-57
2022/10/27 12:52:56;;;;;;;3.13;1.75;;;;;;;;;;5017084;28;20295;-56
2022/10/27 12:55:42;;;;;;;2.78;1.73;;;;;;;;;;5037233;28;20556;-56
2022/10/27 12:58:13;;;;;;;3.35;2.03;;;;;;;;;;5011375;28;20834;-56
2022/10/27 13:01:09;;;;;;;2.90;1.92;;;;;;;;;;5010499;28;20183;-54
2022/10/27 13:03:37;;;;;;;3.38;2.47;;;;;;;;;;5014750;28;20293;-54
2022/10/27 13:06:29;;;;;;;3.17;1.90;;;;;;;;;;5018213;28;20172;-56
2022/10/27 13:09:09;;;;;;;2.60;1.90;;;;;;;;;;5013807;28;20222;-60
2022/10/27 13:11:40;;;;;;;2.63;2.10;;;;;;;;;;5017813;28;20182;-55
2022/10/27 13:14:20;;;;;;;3.25;2.03;;;;;;;;;;5016077;28;20211;-55
2022/10/27 13:17:05;;;;;;;3.17;2.20;;;;;;;;;;5011514;28;20180;-53
2022/10/27 13:19:40;;;;;;;3.22;2.25;;;;;;;;;;5011901;28;20648;-55
2022/10/27 13:22:18;;;;;;;2.72;1.83;;;;;;;;;;5016859;28;20624;-54
2022/10/27 13:24:56;;;;;;;3.28;2.00;;;;;;;;;;5016193;28;20200;-56
2022/10/27 13:27:35;;;;;;;2.55;1.95;;;;;;;;;;5013642;28;20221;-56
2022/10/27 13:30:05;;;;;;;3.13;2.08;;;;;;;;;;5039817;28;20179;-56
2022/10/27 13:32:46;;;;;;;2.58;1.80;;;;;;;;;;5012244;28;20177;-56
2022/10/27 13:35:11;;;;;;;4.00;2.28;;;;;;;;;;5015419;28;20694;-55
2022/10/27 13:37:46;;;;;;;3.42;2.15;;;;;;;;;;5016840;28;20199;-55
2022/10/27 13:40:17;;;;;;;2.88;2.15;;;;;;;;;;5016185;28;20179;-55
2022/10/27 13:42:43;;;;;;;2.65;1.90;;;;;;;;;;5011971;28;20683;-55
2022/10/27 13:45:34;;;;;;;2.20;1.83;;;;;;;;;;5013336;28;20188;-55
2022/10/27 13:48:13;;;;;;;2.25;2.00;;;;;;;;;;5013083;28;20249;-55
2022/10/27 13:50:42;;;;;;;2.80;1.95;;;;;;;;;;5014484;28;20182;-54
2022/10/27 13:53:13;;;;;;;3.05;1.90;;;;;;;;;;5021066;28;20239;-58
2022/10/27 13:55:49;;;;;;;2.38;1.88;;;;;;;;;;5012777;28;20645;-58
2022/10/27 13:58:18;;;;;;;2.33;1.80;;;;;;;;;;5021785;28;20196;-57
2022/10/27 14:01:21;;;;;;;2.85;2.08;;;;;;;;;;5016542;28;20172;-57
2022/10/27 14:04:04;;;;;;;2.40;1.92;;;;;;;;;;5016133;28;20944;-55
2022/10/27 14:06:31;;;;;;;2.53;1.88;;;;;;;;;;5031192;28;20197;-54
2022/10/27 14:09:12;;;;;;;3.22;1.95;;;;;;;;;;5021025;28;20179;-57
2022/10/27 14:11:45;;;;;;;3.60;2.35;;;;;;;;;;5006406;28;20203;-56
2022/10/27 14:14:20;;;;;;;2.25;1.60;;;;;;;;;;5015052;28;20676;-51
2022/10/27 14:16:46;;;;;;;2.72;2.03;;;;;;;;;;5016149;28;20186;-49
2022/10/27 14:19:11;;;;;;;3.30;2.53;;;;;;;;;;5017717;28;20258;-51
2022/10/27 14:21:40;;;;;;;2.80;2.40;;;;;;;;;;5015529;28;20187;-51
2022/10/27 14:24:16;;;;;;;4.22;2.50;;;;;;;;;;5013186;28;20195;-52
2022/10/27 14:26:41;;;;;;;3.33;2.30;;;;;;;;;;5017585;28;20183;-52
2022/10/27 14:29:21;;;;;;;3.70;2.50;;;;;;;;;;5027140;28;20225;-52
2022/10/27 14:31:46;;;;;;;3.78;2.33;;;;;;;;;;5016545;28;20190;-52
2022/10/27 14:34:23;;;;;;;5.85;2.92;;;;;;;;;;5015447;28;20196;-56
2022/10/27 14:36:49;;;;;;;12.98;5.68;;;;;;;;;;5017923;28;20241;-56
2022/10/27 14:39:24;;;;;;;12.27;5.70;;;;;;;;;;5017459;28;20206;-55
2022/10/27 14:41:51;;;;;;;13.57;6.18;;;;;;;;;;5010239;28;20183;-54
2022/10/27 14:44:22;;;;;;;11.13;5.65;;;;;;;;;;5014761;28;20287;-56
2022/10/27 14:46:49;;;;;;;14.32;7.35;;;;;;;;;;5015497;28;20183;-57
2022/10/27 14:49:25;;;;;;;15.05;7.10;;;;;;;;;;5013398;28;20176;-57
2022/10/27 14:51:51;;;;;;;12.93;6.82;;;;;;;;;;5009522;28;20596;-57
2022/10/27 14:54:17;;;;;;;12.85;6.82;;;;;;;;;;5010022;28;20226;-61
2022/10/27 14:56:43;;;;;;;12.93;6.97;;;;;;;;;;5016022;28;20581;-59
2022/10/27 14:59:18;;;;;;;16.08;7.20;;;;;;;;;;5010066;28;20266;-57
2022/10/27 15:01:43;;;;;;;15.98;7.35;;;;;;;;;;5009869;28;20190;-57